Terminal Aerodrome Forecast
Issued by NWS Bismarck, ND

Home | Current Version | Previous Version | Graphics & Text | Print | Product List | Glossary On
Versions: 1 2 3 4 5 6 7 8 9 10 11 12 13 14
000
FTUS43 KBIS 181400 AAA
TAFBIS
TAF AMD
KBIS 181408Z 1814/1912 16010KT P6SM OVC009
     FM181800 16014KT P6SM SCT009 BKN015
     FM181900 16015KT P6SM SCT025
     FM190100 16007KT P6SM SCT120 SCT150
     FM190900 29006KT P6SM SCT100=

USA.gov is the U.S. government's official web portal to all federal, state and local government web resources and services.